Terminal Aerodrome Forecast
Issued by NWS

Home | Current Version | Previous Version | Text Only | Print | Product List | Glossary On
Versions: 1 2 3 4 5 6 7 8 9 10 11 12 13 14 15 16 17 18 19 20
319
FTUS43 KILX 280753 AAA
TAFCMI
TAF AMD
KCMI 280753Z 2808/2906 35012KT 5SM BR OVC005
     FM281500 02006KT P6SM OVC012
     FM281900 03009KT P6SM OVC025
     FM282200 02009KT P6SM BKN030=

USA.gov is the U.S. government's official web portal to all federal, state and local government web resources and services.